createdAt,value
2022-09-20T00:01:22.967Z,96925.19
2022-09-20T00:03:51.531Z,96925.63
2022-09-20T00:06:20.110Z,96922.03
2022-09-20T00:08:48.368Z,96911.66
2022-09-20T00:11:20.417Z,96912.34
2022-09-20T00:13:51.464Z,96922.47
2022-09-20T00:16:20.293Z,96915.56
2022-09-20T00:18:52.205Z,96912.59
2022-09-20T00:21:24.277Z,96912.16
2022-09-20T00:23:53.301Z,96912.53
2022-09-20T00:26:23.209Z,96915.53
2022-09-20T00:28:53.926Z,96916.97
2022-09-20T00:31:21.969Z,96919.44
2022-09-20T00:34:07.438Z,96916.97
2022-09-20T00:36:36.717Z,96918.81
2022-09-20T00:39:07.492Z,96919.34
2022-09-20T00:41:36.649Z,96919.53
2022-09-20T00:44:04.865Z,96919.69
2022-09-20T00:46:34.613Z,96917.88
2022-09-20T00:49:05.635Z,96912.63
2022-09-20T00:51:38.879Z,96911.78
2022-09-20T00:54:08.574Z,96910.75
2022-09-20T00:56:40.886Z,96913.81
2022-09-20T00:59:09.965Z,96907.34
2022-09-20T01:01:37.671Z,96908.97
2022-09-20T01:04:06.616Z,96911.34
2022-09-20T01:06:36.364Z,96906.88
2022-09-20T01:09:07.762Z,96918.38
2022-09-20T01:11:44.647Z,96910.75
2022-09-20T01:14:19.102Z,96909.66
2022-09-20T01:16:48.673Z,96672.88
2022-09-20T01:19:17.727Z,96908.97
2022-09-20T01:21:46.679Z,96914.22
2022-09-20T01:24:16.326Z,96908.38
2022-09-20T01:27:01.701Z,96907.69
2022-09-20T01:29:38.634Z,96907.44
2022-09-20T01:32:07.623Z,96902.53
2022-09-20T01:34:38.884Z,96897.88
2022-09-20T01:37:07.728Z,96897.38
2022-09-20T01:39:41.276Z,96901.03
2022-09-20T01:42:09.753Z,96910.06
2022-09-20T01:44:40.213Z,96901.56
2022-09-20T01:47:11.665Z,96903.25
2022-09-20T01:49:44.004Z,96909.28
2022-09-20T01:52:29.301Z,96905.72
2022-09-20T01:55:15.572Z,96893.91
2022-09-20T01:58:04.370Z,96906.03
2022-09-20T02:00:35.320Z,96901.66
2022-09-20T02:03:20.882Z,96902.16
2022-09-20T02:06:00.473Z,96904.25
2022-09-20T02:08:35.990Z,96902.69
2022-09-20T02:11:14.370Z,96904.38
2022-09-20T02:13:59.728Z,96904.03
2022-09-20T02:16:48.997Z,96910.94
2022-09-20T02:19:34.445Z,96909.91
2022-09-20T02:22:19.608Z,96911.81
2022-09-20T02:24:47.848Z,96908.03
2022-09-20T02:27:18.282Z,96910.13
2022-09-20T02:29:47.751Z,96898.41
2022-09-20T02:32:28.341Z,96900.25
2022-09-20T02:35:01.512Z,96900.75
2022-09-20T02:37:41.528Z,96903.22
2022-09-20T02:40:15.298Z,96895.66
2022-09-20T02:42:51.598Z,96899.59
2022-09-20T02:45:24.612Z,96901.47
2022-09-20T02:47:57.802Z,96901.00
2022-09-20T02:50:30.627Z,96899.59
2022-09-20T02:53:07.593Z,96901.75
2022-09-20T02:55:37.264Z,96904.81
2022-09-20T02:58:10.376Z,96911.97
2022-09-20T03:00:40.942Z,96899.97
2022-09-20T03:03:09.924Z,96908.06
2022-09-20T03:05:43.681Z,96912.09
2022-09-20T03:08:23.225Z,96911.69
2022-09-20T03:10:54.269Z,96920.31
2022-09-20T03:13:29.401Z,96964.03
2022-09-20T03:16:04.144Z,96922.81
2022-09-20T03:18:34.974Z,96928.78
2022-09-20T03:21:06.400Z,96926.94
2022-09-20T03:23:42.976Z,96910.06
2022-09-20T03:26:15.172Z,96912.91
2022-09-20T03:28:51.511Z,96908.66
2022-09-20T03:31:23.572Z,96914.06
2022-09-20T03:33:52.842Z,96908.06
2022-09-20T03:36:32.041Z,96906.13
2022-09-20T03:39:29.101Z,96909.31
2022-09-20T03:42:03.588Z,96902.06
2022-09-20T03:44:46.869Z,96912.69
2022-09-20T03:47:19.075Z,96916.56
2022-09-20T03:50:14.280Z,96914.56
2022-09-20T03:53:00.267Z,96917.44
2022-09-20T03:55:45.332Z,96912.34
2022-09-20T03:58:18.705Z,96914.81
2022-09-20T04:00:50.516Z,96924.00
2022-09-20T04:03:25.073Z,96922.13
2022-09-20T04:05:57.537Z,96920.44
2022-09-20T04:08:32.785Z,96948.88
2022-09-20T04:11:06.399Z,96927.56
2022-09-20T04:13:36.481Z,96926.72
2022-09-20T04:16:22.497Z,96934.25
2022-09-20T04:18:51.812Z,96936.69
2022-09-20T04:21:23.718Z,96939.03
2022-09-20T04:23:54.767Z,96945.81
2022-09-20T04:26:28.832Z,96947.25
2022-09-20T04:28:58.575Z,96942.69
2022-09-20T04:31:30.982Z,96945.63
2022-09-20T04:33:58.733Z,96948.03
2022-09-20T04:36:33.657Z,96947.13
2022-09-20T04:39:09.341Z,96945.75
2022-09-20T04:41:51.315Z,96951.63
2022-09-20T04:44:27.849Z,96944.38
2022-09-20T04:47:17.415Z,96942.84
2022-09-20T04:50:02.556Z,96942.50
2022-09-20T04:52:54.299Z,96948.31
2022-09-20T04:55:44.550Z,96942.34
2022-09-20T04:58:28.609Z,96965.50
2022-09-20T05:01:07.034Z,96946.16
2022-09-20T05:03:55.939Z,96955.59
2022-09-20T05:06:30.049Z,96955.13
2022-09-20T05:09:02.192Z,96975.41
2022-09-20T05:11:47.044Z,96956.47
2022-09-20T05:14:24.884Z,96955.44
2022-09-20T05:17:08.558Z,96955.47
2022-09-20T05:19:43.231Z,96963.75
2022-09-20T05:22:19.116Z,96967.78
2022-09-20T05:25:09.039Z,96957.28
2022-09-20T05:27:39.061Z,96967.22
2022-09-20T05:30:23.588Z,96969.34
2022-09-20T05:32:53.948Z,96969.09
2022-09-20T05:35:23.555Z,96974.19
2022-09-20T05:37:52.275Z,96975.34
2022-09-20T05:40:26.415Z,96977.16
2022-09-20T05:42:55.695Z,96985.28
2022-09-20T05:45:37.941Z,96986.06
2022-09-20T05:48:11.578Z,96985.78
2022-09-20T05:50:41.401Z,96990.13
2022-09-20T05:53:15.282Z,96991.66
2022-09-20T05:55:48.589Z,96992.66
2022-09-20T05:58:23.791Z,96990.69
2022-09-20T06:00:54.491Z,96989.34
2022-09-20T06:03:24.350Z,96996.44
2022-09-20T06:05:58.003Z,96991.78
2022-09-20T06:08:41.844Z,96995.03
2022-09-20T06:11:14.237Z,96990.81
2022-09-20T06:14:06.577Z,96987.84
2022-09-20T06:16:38.637Z,96991.63
2022-09-20T06:19:08.304Z,96999.34
2022-09-20T06:21:40.078Z,96998.88
2022-09-20T06:24:09.112Z,96993.22
2022-09-20T06:26:38.778Z,96988.53
2022-09-20T06:29:07.776Z,96997.28
2022-09-20T06:31:39.415Z,96994.13
2022-09-20T06:34:11.370Z,96995.16
2022-09-20T06:36:56.552Z,96997.25
2022-09-20T06:39:43.545Z,96996.22
2022-09-20T06:42:11.283Z,96996.06
2022-09-20T06:44:49.472Z,96997.03
2022-09-20T06:47:17.286Z,96995.63
2022-09-20T06:49:49.670Z,96999.69
2022-09-20T06:52:19.688Z,96993.91
2022-09-20T06:54:47.927Z,97004.72
2022-09-20T06:57:16.588Z,97006.59
2022-09-20T06:59:44.405Z,97004.19
2022-09-20T07:02:13.027Z,97015.38
2022-09-20T07:04:42.462Z,96779.41
2022-09-20T07:07:17.335Z,97010.94
2022-09-20T07:09:44.881Z,97011.47
2022-09-20T07:12:12.695Z,97015.09
2022-09-20T07:14:40.696Z,97016.31
2022-09-20T07:17:08.637Z,97009.38
2022-09-20T07:19:39.493Z,97010.16
2022-09-20T07:22:07.525Z,97024.75
2022-09-20T07:24:36.984Z,97023.88
2022-09-20T07:27:05.308Z,97026.19
2022-09-20T07:29:38.595Z,97033.47
2022-09-20T07:32:07.476Z,97024.66
2022-09-20T07:34:38.642Z,97023.88
2022-09-20T07:37:06.944Z,97026.22
2022-09-20T07:39:36.466Z,97035.63
2022-09-20T07:42:07.497Z,97038.25
2022-09-20T07:44:43.583Z,97030.09
2022-09-20T07:47:12.606Z,97033.00
2022-09-20T07:49:42.925Z,97037.00
2022-09-20T07:52:11.265Z,97039.78
2022-09-20T07:54:40.261Z,97041.00
2022-09-20T07:57:08.264Z,97035.97
2022-09-20T07:59:39.477Z,97042.56
2022-09-20T08:02:08.723Z,97054.78
2022-09-20T08:04:36.506Z,97053.50
2022-09-20T08:07:07.459Z,97040.19
2022-09-20T08:09:35.238Z,97054.31
2022-09-20T08:14:56.889Z,97042.09
2022-09-20T08:17:25.077Z,97053.25
2022-09-20T08:19:53.717Z,97052.97
2022-09-20T08:22:22.135Z,97048.44
2022-09-20T08:24:50.062Z,97048.41
2022-09-20T08:27:20.005Z,97049.53
2022-09-20T08:29:47.829Z,97048.97
2022-09-20T08:32:15.987Z,97049.81
2022-09-20T08:34:43.683Z,97058.72
2022-09-20T08:37:13.638Z,97059.22
2022-09-20T08:39:58.193Z,97048.47
2022-09-20T08:42:33.597Z,97055.34
2022-09-20T08:45:03.913Z,97053.78
2022-09-20T08:47:32.768Z,97049.53
2022-09-20T08:50:09.024Z,97048.97
2022-09-20T08:52:39.804Z,97040.75
2022-09-20T08:55:10.675Z,97050.84
2022-09-20T08:57:40.267Z,97049.50
2022-09-20T09:00:08.826Z,97054.75
2022-09-20T09:02:36.542Z,97056.47
2022-09-20T09:05:04.793Z,97048.47
2022-09-20T09:07:33.277Z,97088.66
2022-09-20T09:10:03.051Z,97041.53
2022-09-20T09:12:31.732Z,97042.88
2022-09-20T09:15:03.089Z,97050.59
2022-09-20T09:17:34.193Z,97048.97
2022-09-20T09:20:18.506Z,97048.19
2022-09-20T09:22:47.724Z,97038.63
2022-09-20T09:25:25.429Z,97043.66
2022-09-20T09:27:55.062Z,97045.53
2022-09-20T09:30:26.655Z,97042.59
2022-09-20T09:32:56.589Z,97049.53
2022-09-20T09:35:27.669Z,96887.19
2022-09-20T09:37:55.761Z,97038.09
2022-09-20T09:40:28.035Z,97036.38
2022-09-20T09:42:56.948Z,97031.97
2022-09-20T09:45:31.870Z,97061.50
2022-09-20T09:48:00.533Z,97036.69
2022-09-20T09:50:30.430Z,97033.81
2022-09-20T09:52:59.212Z,97038.94
2022-09-20T09:55:27.920Z,97036.69
2022-09-20T09:57:58.975Z,97028.56
2022-09-20T10:00:27.447Z,97038.31
2022-09-20T10:03:11.938Z,97036.22
2022-09-20T10:05:44.844Z,97034.56
2022-09-20T10:08:18.924Z,97032.56
2022-09-20T10:10:53.850Z,97032.41
2022-09-20T10:13:23.551Z,97034.09
2022-09-20T10:15:52.245Z,97030.63
2022-09-20T10:18:27.107Z,97039.66
2022-09-20T10:21:10.232Z,97038.59
2022-09-20T10:24:03.069Z,97043.06
2022-09-20T10:26:37.571Z,97035.56
2022-09-20T10:29:08.909Z,97043.44
2022-09-20T10:31:42.448Z,97024.13
2022-09-20T10:34:20.745Z,97030.31
2022-09-20T10:36:50.136Z,97027.84
2022-09-20T10:39:20.670Z,97030.47
2022-09-20T10:42:09.155Z,97025.91
2022-09-20T10:44:47.709Z,97024.97
2022-09-20T10:47:18.252Z,97025.00
2022-09-20T10:49:50.700Z,97033.59
2022-09-20T10:52:23.827Z,97026.88
2022-09-20T10:55:06.633Z,97024.28
2022-09-20T10:57:49.350Z,97022.94
2022-09-20T11:00:22.994Z,97032.84
2022-09-20T11:02:58.470Z,97029.53
2022-09-20T11:05:34.981Z,97030.13
2022-09-20T11:08:13.440Z,97026.78
2022-09-20T11:10:43.078Z,97026.28
2022-09-20T11:13:14.228Z,97026.75
2022-09-20T11:15:43.509Z,97041.41
2022-09-20T11:18:12.372Z,97036.78
2022-09-20T11:20:44.299Z,97042.09
2022-09-20T11:23:16.120Z,97052.72
2022-09-20T11:25:47.267Z,97064.13
2022-09-20T11:28:16.356Z,97050.59
2022-09-20T11:39:06.652Z,97036.41
2022-09-20T11:41:36.397Z,97032.41
2022-09-20T11:44:07.052Z,97026.06
2022-09-20T11:46:35.136Z,97029.13
2022-09-20T11:49:03.168Z,97035.25
2022-09-20T11:51:51.751Z,97020.84
2022-09-20T11:54:40.449Z,97025.59
2022-09-20T11:57:09.065Z,97020.00
2022-09-20T11:59:37.571Z,97012.72
2022-09-20T12:02:17.265Z,97014.78
2022-09-20T12:04:46.376Z,97018.38
2022-09-20T12:07:18.389Z,97017.19
2022-09-20T12:09:48.101Z,97005.59
2022-09-20T12:12:25.084Z,97000.22
2022-09-20T12:15:06.333Z,96994.47
2022-09-20T12:17:53.698Z,96988.09
2022-09-20T12:20:37.378Z,96982.66
2022-09-20T12:23:20.917Z,96976.16
2022-09-20T12:26:01.992Z,96977.44
2022-09-20T12:28:34.761Z,96963.16
2022-09-20T12:31:18.064Z,96966.69
2022-09-20T12:33:56.366Z,96972.38
2022-09-20T12:36:24.120Z,96962.72
2022-09-20T12:39:02.101Z,96969.63
2022-09-20T12:41:31.668Z,96988.84
2022-09-20T12:44:03.712Z,96970.41
2022-09-20T12:46:34.079Z,96965.44
2022-09-20T12:49:47.371Z,96963.75
2022-09-20T12:52:46.371Z,96979.97
2022-09-20T12:55:15.275Z,96970.50
2022-09-20T12:57:44.371Z,96970.50
2022-09-20T13:00:32.020Z,96968.75
2022-09-20T13:03:00.682Z,96963.94
2022-09-20T13:05:42.890Z,96962.63
2022-09-20T13:08:17.388Z,96974.34
2022-09-20T13:10:50.037Z,96962.50
2022-09-20T13:13:27.006Z,96965.09
2022-09-20T13:15:55.066Z,96974.16
2022-09-20T13:18:23.402Z,96969.88
2022-09-20T13:20:53.054Z,96979.59
2022-09-20T13:23:21.994Z,96971.69
2022-09-20T13:25:52.853Z,96979.41
2022-09-20T13:28:34.548Z,96973.50
2022-09-20T13:31:20.446Z,96976.09
2022-09-20T13:33:48.629Z,96986.72
2022-09-20T13:36:16.252Z,96981.88
2022-09-20T13:38:46.021Z,96993.69
2022-09-20T13:41:16.504Z,97002.97
2022-09-20T13:43:46.287Z,97005.84
2022-09-20T13:46:17.072Z,97014.16
2022-09-20T13:48:44.864Z,97012.44
2022-09-20T13:51:19.055Z,97017.56
2022-09-20T13:53:47.480Z,97021.19
2022-09-20T13:56:19.108Z,97014.63
2022-09-20T13:58:48.570Z,97022.31
2022-09-20T14:01:23.239Z,97009.56
2022-09-20T14:03:52.786Z,97014.78
2022-09-20T14:06:27.426Z,97007.16
2022-09-20T14:08:55.715Z,97033.41
2022-09-20T14:11:24.022Z,97005.19
2022-09-20T14:13:54.220Z,97001.44
2022-09-20T14:16:22.046Z,96995.03
2022-09-20T14:18:50.025Z,97006.47
2022-09-20T14:21:19.931Z,96996.59
2022-09-20T14:23:51.221Z,96995.41
2022-09-20T14:26:26.581Z,97005.91
2022-09-20T14:28:59.788Z,97006.19
2022-09-20T14:31:34.816Z,96995.41
2022-09-20T14:34:02.883Z,97003.50
2022-09-20T14:36:31.253Z,97003.31
2022-09-20T14:38:59.864Z,97002.56
2022-09-20T14:41:32.697Z,97007.69
2022-09-20T14:44:06.218Z,96651.22
2022-09-20T14:46:35.512Z,97004.91
2022-09-20T14:49:22.657Z,97000.84
2022-09-20T14:51:50.246Z,97004.28
2022-09-20T14:54:24.915Z,96990.56
2022-09-20T14:56:53.308Z,96988.09
2022-09-20T14:59:24.697Z,96805.06
2022-09-20T15:01:58.549Z,96979.56
2022-09-20T15:04:26.997Z,96984.63
2022-09-20T15:06:57.022Z,96982.97
2022-09-20T15:09:28.630Z,96982.84
2022-09-20T15:12:03.152Z,96979.31
2022-09-20T15:14:37.215Z,96979.75
2022-09-20T15:17:06.117Z,96977.16
2022-09-20T15:19:34.518Z,96979.81
2022-09-20T15:22:05.079Z,96979.78
2022-09-20T15:24:34.670Z,96978.03
2022-09-20T15:27:02.388Z,96983.03
2022-09-20T15:29:30.842Z,96980.97
2022-09-20T15:32:00.541Z,96979.53
2022-09-20T15:34:30.773Z,96985.09
2022-09-20T15:36:58.691Z,96986.09
2022-09-20T15:39:29.033Z,96978.28
2022-09-20T15:42:02.554Z,96982.31
2022-09-20T15:44:30.084Z,96982.94
2022-09-20T15:47:00.033Z,96983.31
2022-09-20T15:49:31.173Z,96978.09
2022-09-20T15:52:03.123Z,96983.13
2022-09-20T15:54:43.275Z,96973.47
2022-09-20T15:57:11.836Z,96976.66
2022-09-20T15:59:39.558Z,96981.16
2022-09-20T16:02:07.957Z,96978.19
2022-09-20T16:04:42.378Z,96970.06
2022-09-20T16:07:10.278Z,96977.31
2022-09-20T16:09:39.074Z,96982.38
2022-09-20T16:12:06.861Z,96990.91
2022-09-20T16:14:39.170Z,96989.03
2022-09-20T16:17:07.091Z,96993.56
2022-09-20T16:19:33.884Z,96992.19
2022-09-20T16:22:02.856Z,96993.31
2022-09-20T16:24:32.751Z,96995.63
2022-09-20T16:27:01.489Z,96992.41
2022-09-20T16:29:29.963Z,96996.44
2022-09-20T16:31:59.341Z,96995.56
2022-09-20T16:34:31.294Z,96996.88
2022-09-20T16:36:59.749Z,96997.06
2022-09-20T16:39:30.604Z,96999.81
2022-09-20T16:41:59.050Z,97010.06
2022-09-20T16:44:26.604Z,97016.19
2022-09-20T16:46:59.815Z,97007.06
2022-09-20T16:49:30.151Z,97011.59
2022-09-20T16:51:57.742Z,97014.06
2022-09-20T16:54:31.003Z,97027.88
2022-09-20T16:57:03.690Z,96687.81
2022-09-20T16:59:33.953Z,97025.91
2022-09-20T17:02:01.686Z,97030.13
2022-09-20T17:04:30.483Z,97026.53
2022-09-20T17:07:00.997Z,97023.94
2022-09-20T17:09:30.730Z,97027.31
2022-09-20T17:11:58.503Z,97023.47
2022-09-20T17:14:30.542Z,97036.03
2022-09-20T17:16:58.111Z,97031.97
2022-09-20T17:19:26.874Z,97041.75
2022-09-20T17:21:54.520Z,97039.41
2022-09-20T17:24:25.521Z,97037.75
2022-09-20T17:26:57.198Z,97052.09
2022-09-20T17:29:24.768Z,97060.78
2022-09-20T17:31:56.691Z,97055.78
2022-09-20T17:34:28.064Z,97052.72
2022-09-20T17:36:56.198Z,97056.94
2022-09-20T17:39:23.810Z,97069.69
2022-09-20T17:41:51.720Z,97061.53
2022-09-20T17:44:26.712Z,97072.06
2022-09-20T17:47:00.753Z,97063.44
2022-09-20T17:49:31.876Z,97066.16
2022-09-20T17:51:59.649Z,97070.56
2022-09-20T17:54:32.254Z,97074.47
2022-09-20T17:57:00.033Z,97067.69
2022-09-20T17:59:34.398Z,97074.47
2022-09-20T18:02:05.775Z,97081.44
2022-09-20T18:04:33.321Z,97078.28
2022-09-20T18:07:03.790Z,97078.03
2022-09-20T18:09:31.444Z,97087.28
2022-09-20T18:11:59.055Z,97076.31
2022-09-20T18:14:31.203Z,97085.47
2022-09-20T18:17:01.043Z,97078.81
2022-09-20T18:19:33.518Z,97095.94
2022-09-20T18:22:06.534Z,97092.78
2022-09-20T18:24:34.114Z,97098.00
2022-09-20T18:27:01.923Z,97094.16
2022-09-20T18:29:36.682Z,97102.09
2022-09-20T18:32:06.626Z,97102.47
2022-09-20T18:34:35.617Z,97110.34
2022-09-20T18:37:04.567Z,97109.78
2022-09-20T18:39:32.782Z,97107.69
2022-09-20T18:42:00.397Z,97112.22
2022-09-20T18:44:32.297Z,97125.00
2022-09-20T18:47:01.317Z,97127.47
2022-09-20T18:49:30.334Z,97126.72
2022-09-20T18:51:59.278Z,97129.38
2022-09-20T18:54:27.402Z,97136.28
2022-09-20T18:56:55.255Z,96890.22
2022-09-20T18:59:23.390Z,97140.00
2022-09-20T19:02:14.810Z,97147.47
2022-09-20T19:04:47.301Z,97147.94
2022-09-20T19:07:17.825Z,97143.78
2022-09-20T19:09:47.609Z,97151.75
2022-09-20T19:12:17.322Z,97144.53
2022-09-20T19:14:52.121Z,97154.16
2022-09-20T19:17:20.686Z,97157.06
2022-09-20T19:19:49.376Z,97156.03
2022-09-20T19:22:25.730Z,97167.44
2022-09-20T19:25:03.513Z,97174.13
2022-09-20T19:27:31.762Z,97171.44
2022-09-20T19:29:59.780Z,97172.50
2022-09-20T19:32:28.042Z,97175.16
2022-09-20T19:35:01.871Z,97182.09
2022-09-20T19:37:34.126Z,97185.34
2022-09-20T19:40:05.396Z,97181.03
2022-09-20T19:42:36.215Z,97177.84
2022-09-20T19:45:05.164Z,97180.50
2022-09-20T19:47:37.100Z,96949.81
2022-09-20T19:50:05.538Z,97182.09
2022-09-20T19:52:34.900Z,96995.25
2022-09-20T19:55:03.340Z,97194.38
2022-09-20T19:57:33.876Z,97192.50
2022-09-20T20:00:08.721Z,97192.78
2022-09-20T20:02:37.150Z,97191.16
2022-09-20T20:05:05.179Z,97193.03
2022-09-20T20:10:05.516Z,97188.50
2022-09-20T20:12:34.760Z,97199.44
2022-09-20T20:15:05.354Z,97193.31
2022-09-20T20:17:40.476Z,97201.78
2022-09-20T20:20:12.537Z,97198.06
2022-09-20T20:22:59.370Z,97197.59
2022-09-20T20:25:31.354Z,97204.47
2022-09-20T20:28:00.387Z,97201.81
2022-09-20T20:30:28.180Z,97203.69
2022-09-20T20:32:58.197Z,97198.91
2022-09-20T20:35:26.235Z,97191.44
2022-09-20T20:37:53.944Z,97202.88
2022-09-20T20:40:23.329Z,97200.69
2022-09-20T20:42:59.868Z,97206.59
2022-09-20T20:45:28.090Z,97201.28
2022-09-20T20:47:58.045Z,97212.91
2022-09-20T20:50:25.795Z,97215.03
2022-09-20T20:52:54.025Z,97207.03
2022-09-20T20:55:21.627Z,97211.81
2022-09-20T20:57:58.565Z,97207.09
2022-09-20T21:00:28.612Z,97212.41
2022-09-20T21:03:00.055Z,97214.44
2022-09-20T21:05:28.402Z,97218.97
2022-09-20T21:07:56.558Z,97211.22
2022-09-20T21:10:24.182Z,97214.59
2022-09-20T21:12:54.892Z,97215.09
2022-09-20T21:15:29.278Z,97206.41
2022-09-20T21:17:56.942Z,97215.28
2022-09-20T21:20:25.422Z,97210.06
2022-09-20T21:22:52.928Z,97205.06
2022-09-20T21:25:20.554Z,97201.34
2022-09-20T21:27:48.073Z,97204.78
2022-09-20T21:30:15.826Z,97211.69
2022-09-20T21:32:45.274Z,97211.19
2022-09-20T21:35:24.016Z,97223.66
2022-09-20T21:37:51.807Z,97220.63
2022-09-20T21:40:19.528Z,97219.78
2022-09-20T21:42:47.405Z,97218.22
2022-09-20T21:45:20.649Z,97222.75
2022-09-20T21:47:51.125Z,97224.03
2022-09-20T21:50:20.304Z,97221.13
2022-09-20T21:52:50.686Z,97228.00
2022-09-20T21:55:18.607Z,97230.22
2022-09-20T21:57:47.308Z,97227.13
2022-09-20T22:00:15.930Z,97221.56
2022-09-20T22:02:47.579Z,97222.53
2022-09-20T22:05:19.832Z,97223.59
2022-09-20T22:07:48.073Z,97222.53
2022-09-20T22:10:15.873Z,97213.00
2022-09-20T22:12:43.743Z,97217.06
2022-09-20T22:15:11.759Z,97220.00
2022-09-20T22:17:39.660Z,97219.44
2022-09-20T22:20:07.918Z,97211.59
2022-09-20T22:22:39.013Z,96963.91
2022-09-20T22:25:07.099Z,97217.91
2022-09-20T22:27:34.824Z,97216.50
2022-09-20T22:30:04.982Z,97209.78
2022-09-20T22:32:32.734Z,97212.25
2022-09-20T22:35:00.598Z,97209.81
2022-09-20T22:37:31.082Z,97202.31
2022-09-20T22:40:00.972Z,97200.34
2022-09-20T22:42:28.929Z,97203.84
2022-09-20T22:44:56.948Z,97202.31
2022-09-20T22:47:33.853Z,97201.53
2022-09-20T22:50:01.466Z,97210.84
2022-09-20T22:52:29.315Z,97207.94
2022-09-20T22:54:57.121Z,97244.84
2022-09-20T22:57:29.135Z,97207.88
2022-09-20T22:59:56.761Z,97204.50
2022-09-20T23:02:24.655Z,97205.75
2022-09-20T23:04:52.220Z,97201.59
2022-09-20T23:07:20.229Z,97203.06
2022-09-20T23:09:49.904Z,97204.06
2022-09-20T23:12:17.525Z,97208.72
2022-09-20T23:14:46.741Z,97205.69
2022-09-20T23:17:14.516Z,97210.19
2022-09-20T23:19:44.445Z,97207.41
2022-09-20T23:22:14.451Z,97204.13
2022-09-20T23:24:42.629Z,97204.59
2022-09-20T23:27:10.824Z,97203.13
2022-09-20T23:29:40.985Z,97211.75
2022-09-20T23:32:10.391Z,97220.44
2022-09-20T23:34:38.817Z,97213.44
2022-09-20T23:37:06.867Z,97213.19
2022-09-20T23:39:34.722Z,97051.41
2022-09-20T23:42:02.864Z,97210.34
2022-09-20T23:44:30.757Z,97204.50
2022-09-20T23:46:58.532Z,97209.25
2022-09-20T23:49:27.837Z,97216.56
2022-09-20T23:51:55.622Z,97224.28
2022-09-20T23:54:23.411Z,97218.09
2022-09-20T23:56:51.341Z,97214.53
2022-09-20T23:59:21.805Z,97207.53
